K2LS

Galliano Heliport

Galliano, Louisiana, USA
METAR K2LS 162355Z AUTO 36004KT 10SM FEW018 11/07 A3027 RMK AO2
Observed Flight Rules
Dec-16 @ 23:55 UTC (29 minutes ago) Visual Flight Rules
Wind Visibility Clouds
360° at 4 knots 10 miles
  • Few at 1,800' AGL
Temperatures Readings
Current 11°C / 52°F
Dewpoint 7°C / 45°F
Humidity 77%
Altimeter 30.27" Hg
Pressure 1025 hPa
Elevation -2
METAR K2LS 162355Z AUTO 36004KT 10SM FEW018 11/07 A3027 RMK AO2
Observed Flight Rules
Dec-16 @ 23:55 UTC
(29 minutes ago)
VFR
Wind Visibility
360° at 4 knots 10 miles
Clouds
  • Few at 1,800' AGL
Temperature Dewpoint
11°C / 52°F 7°C / 45°F
Humidity Altimeter Pressure
77% 30.27" Hg 1025 hPa